createdAt,value
2023-05-07T00:00:41.271Z,100.00
2023-05-07T00:03:42.955Z,100.00
2023-05-07T00:06:44.606Z,100.00
2023-05-07T00:09:46.163Z,100.00
2023-05-07T00:12:47.803Z,100.00
2023-05-07T00:15:49.291Z,100.00
2023-05-07T00:18:51.271Z,100.00
2023-05-07T00:21:54.559Z,100.00
2023-05-07T00:24:56.142Z,100.00
2023-05-07T00:28:03.623Z,100.00
2023-05-07T00:31:05.238Z,100.00
2023-05-07T00:34:07.119Z,100.00
2023-05-07T00:37:09.791Z,100.00
2023-05-07T00:40:11.848Z,100.00
2023-05-07T00:43:13.662Z,100.00
2023-05-07T00:46:16.818Z,100.00
2023-05-07T00:49:19.355Z,100.00
2023-05-07T00:52:22.694Z,100.00
2023-05-07T00:55:24.974Z,100.00
2023-05-07T00:58:26.671Z,100.00
2023-05-07T01:01:28.326Z,100.00
2023-05-07T01:04:29.872Z,100.00
2023-05-07T01:07:32.931Z,100.00
2023-05-07T01:10:34.562Z,100.00
2023-05-07T01:13:37.705Z,100.00
2023-05-07T01:16:41.579Z,100.00
2023-05-07T01:19:45.004Z,100.00
2023-05-07T01:22:46.975Z,100.00
2023-05-07T01:25:56.109Z,100.00
2023-05-07T01:29:00.217Z,100.00
2023-05-07T01:32:03.404Z,100.00
2023-05-07T01:35:08.366Z,100.00
2023-05-07T01:38:10.131Z,100.00
2023-05-07T01:41:12.912Z,100.00
2023-05-07T01:44:16.229Z,100.00
2023-05-07T01:47:17.956Z,100.00
2023-05-07T01:50:20.762Z,100.00
2023-05-07T01:53:22.236Z,100.00
2023-05-07T01:56:24.943Z,100.00
2023-05-07T01:59:26.519Z,100.00
2023-05-07T02:02:28.144Z,100.00
2023-05-07T02:05:31.994Z,100.00
2023-05-07T02:08:38.752Z,100.00
2023-05-07T02:11:40.611Z,100.00
2023-05-07T02:14:42.499Z,100.00
2023-05-07T02:18:05.562Z,100.00
2023-05-07T02:21:07.248Z,100.00
2023-05-07T02:24:08.780Z,100.00
2023-05-07T02:27:10.341Z,100.00
2023-05-07T02:30:13.328Z,100.00
2023-05-07T02:33:15.176Z,100.00
2023-05-07T02:36:17.444Z,100.00
2023-05-07T02:39:34.367Z,100.00
2023-05-07T02:42:35.996Z,100.00
2023-05-07T02:45:38.603Z,100.00
2023-05-07T02:48:41.554Z,100.00
2023-05-07T02:51:43.082Z,100.00
2023-05-07T02:54:50.520Z,100.00
2023-05-07T02:57:52.080Z,100.00
2023-05-07T03:00:55.520Z,100.00
2023-05-07T03:04:08.857Z,100.00
2023-05-07T03:07:10.466Z,100.00
2023-05-07T03:10:12.298Z,100.00
2023-05-07T03:13:13.998Z,100.00
2023-05-07T03:16:16.217Z,100.00
2023-05-07T03:19:17.787Z,100.00
2023-05-07T03:22:19.448Z,100.00
2023-05-07T03:25:21.541Z,100.00
2023-05-07T03:28:23.059Z,100.00
2023-05-07T03:31:32.521Z,100.00
2023-05-07T03:34:36.126Z,100.00
2023-05-07T03:37:39.060Z,100.00
2023-05-07T03:40:41.124Z,100.00
2023-05-07T03:43:42.868Z,100.00
2023-05-07T03:46:46.918Z,100.00
2023-05-07T03:49:49.866Z,100.00
2023-05-07T03:52:51.692Z,100.00
2023-05-07T03:55:55.816Z,100.00
2023-05-07T03:58:57.794Z,100.00
2023-05-07T04:01:59.556Z,100.00
2023-05-07T04:05:03.865Z,100.00
2023-05-07T04:08:06.374Z,100.00
2023-05-07T04:11:14.694Z,100.00
2023-05-07T04:14:16.539Z,100.00
2023-05-07T04:17:18.251Z,100.00
2023-05-07T04:20:19.829Z,100.00
2023-05-07T04:23:26.306Z,100.00
2023-05-07T04:26:29.255Z,100.00
2023-05-07T04:29:31.531Z,100.00
2023-05-07T04:32:33.312Z,100.00
2023-05-07T04:35:35.834Z,100.00
2023-05-07T04:38:39.613Z,100.00
2023-05-07T04:41:41.626Z,100.00
2023-05-07T04:44:46.001Z,100.00
2023-05-07T04:47:48.043Z,100.00
2023-05-07T04:50:50.853Z,100.00
2023-05-07T04:53:53.239Z,100.00
2023-05-07T04:56:55.220Z,100.00
2023-05-07T04:59:57.017Z,100.00
2023-05-07T05:02:58.692Z,100.00
2023-05-07T05:06:00.839Z,100.00
2023-05-07T05:09:05.905Z,100.00
2023-05-07T05:12:10.417Z,100.00
2023-05-07T05:15:13.875Z,100.00
2023-05-07T05:18:15.476Z,100.00
2023-05-07T05:21:17.069Z,100.00
2023-05-07T05:24:21.369Z,100.00
2023-05-07T05:27:23.039Z,100.00
2023-05-07T05:30:24.612Z,100.00
2023-05-07T05:33:27.007Z,100.00
2023-05-07T05:36:29.458Z,100.00
2023-05-07T05:39:32.957Z,100.00
2023-05-07T05:42:34.609Z,100.00
2023-05-07T05:45:36.605Z,100.00
2023-05-07T05:48:38.249Z,100.00
2023-05-07T05:51:41.230Z,100.00
2023-05-07T05:54:43.307Z,100.00
2023-05-07T05:57:45.003Z,100.00
2023-05-07T06:00:47.300Z,100.00
2023-05-07T06:03:49.167Z,100.00
2023-05-07T06:06:51.142Z,100.00
2023-05-07T06:09:53.146Z,99.72
2023-05-07T06:12:55.453Z,95.96
2023-05-07T06:15:57.357Z,91.59
2023-05-07T06:18:58.860Z,87.77
2023-05-07T06:22:02.329Z,86.40
2023-05-07T06:25:05.327Z,85.64
2023-05-07T06:28:07.045Z,84.60
2023-05-07T06:31:18.608Z,84.24
2023-05-07T06:34:26.511Z,84.02
2023-05-07T06:37:28.158Z,84.13
2023-05-07T06:40:38.556Z,85.91
2023-05-07T06:43:40.441Z,87.64
2023-05-07T06:47:00.746Z,87.57
2023-05-07T06:50:02.877Z,87.83
2023-05-07T06:53:07.634Z,87.78
2023-05-07T06:56:09.350Z,88.47
2023-05-07T06:59:11.837Z,88.07
2023-05-07T07:02:17.699Z,88.20
2023-05-07T07:05:20.399Z,88.43
2023-05-07T07:08:23.273Z,88.96
2023-05-07T07:11:25.790Z,89.78
2023-05-07T07:14:27.463Z,89.09
2023-05-07T07:17:29.875Z,89.93
2023-05-07T07:20:31.652Z,90.16
2023-05-07T07:23:33.748Z,88.36
2023-05-07T07:26:35.656Z,85.56
2023-05-07T07:29:37.533Z,82.21
2023-05-07T07:32:39.283Z,79.87
2023-05-07T07:35:40.935Z,78.71
2023-05-07T07:38:42.692Z,78.41
2023-05-07T07:41:44.535Z,78.28
2023-05-07T07:44:47.184Z,78.79
2023-05-07T07:47:51.233Z,78.15
2023-05-07T07:50:53.227Z,77.96
2023-05-07T07:53:55.081Z,78.21
2023-05-07T07:56:57.351Z,77.84
2023-05-07T07:59:59.869Z,77.35
2023-05-07T08:03:04.819Z,76.91
2023-05-07T08:06:11.932Z,75.34
2023-05-07T08:09:13.982Z,75.04
2023-05-07T08:12:17.015Z,73.99
2023-05-07T08:15:18.972Z,72.85
2023-05-07T08:18:20.728Z,71.48
2023-05-07T08:21:23.650Z,71.01
2023-05-07T08:24:25.194Z,69.93
2023-05-07T08:27:27.281Z,69.29
2023-05-07T08:30:28.868Z,69.05
2023-05-07T08:33:30.674Z,68.31
2023-05-07T08:36:32.283Z,66.96
2023-05-07T08:39:33.898Z,66.57
2023-05-07T08:42:38.745Z,66.35
2023-05-07T08:45:41.295Z,65.54
2023-05-07T08:48:45.577Z,65.39
2023-05-07T08:51:50.205Z,65.55
2023-05-07T08:54:51.723Z,65.62
2023-05-07T08:57:54.018Z,65.92
2023-05-07T09:00:56.694Z,66.44
2023-05-07T09:03:59.283Z,67.36
2023-05-07T09:07:06.308Z,67.08
2023-05-07T09:10:11.675Z,67.24
2023-05-07T09:13:15.690Z,67.62
2023-05-07T09:16:17.911Z,67.68
2023-05-07T09:19:25.452Z,67.31
2023-05-07T09:22:32.872Z,66.90
2023-05-07T09:25:39.031Z,66.62
2023-05-07T09:28:48.054Z,65.99
2023-05-07T09:31:50.719Z,66.15
2023-05-07T09:34:53.661Z,66.31
2023-05-07T09:38:03.596Z,66.28
2023-05-07T09:41:10.177Z,66.40
2023-05-07T09:44:33.343Z,66.33
2023-05-07T09:47:40.100Z,65.61
2023-05-07T09:50:50.559Z,65.50
2023-05-07T09:53:55.081Z,65.29
2023-05-07T09:56:59.591Z,65.96
2023-05-07T10:00:07.191Z,66.49
2023-05-07T10:03:23.526Z,67.05
2023-05-07T10:06:31.313Z,67.46
2023-05-07T10:09:39.363Z,68.14
2023-05-07T10:12:43.160Z,68.96
2023-05-07T10:15:53.856Z,70.25
2023-05-07T10:18:58.011Z,72.08
2023-05-07T10:22:06.869Z,73.85
2023-05-07T10:25:21.752Z,75.81
2023-05-07T10:28:26.676Z,79.64
2023-05-07T10:31:56.848Z,91.92
2023-05-07T10:35:03.124Z,100.00
2023-05-07T10:38:05.924Z,100.00
2023-05-07T10:41:11.544Z,100.00
2023-05-07T10:44:32.010Z,100.00
2023-05-07T10:51:28.865Z,100.00
2023-05-07T10:54:39.830Z,100.00
2023-05-07T10:57:45.926Z,100.00
2023-05-07T11:01:03.523Z,100.00
2023-05-07T11:04:15.960Z,97.25
2023-05-07T11:07:45.530Z,89.68
2023-05-07T11:11:15.898Z,86.94
2023-05-07T11:14:41.121Z,84.93
2023-05-07T11:17:56.551Z,80.31
2023-05-07T11:21:00.834Z,78.21
2023-05-07T11:24:23.259Z,75.50
2023-05-07T11:27:35.047Z,73.72
2023-05-07T11:30:36.784Z,72.68
2023-05-07T11:33:40.409Z,72.50
2023-05-07T11:36:46.327Z,71.82
2023-05-07T11:39:55.501Z,69.81
2023-05-07T11:42:56.991Z,69.19
2023-05-07T11:46:08.069Z,68.55
2023-05-07T11:49:09.876Z,68.21
2023-05-07T11:52:14.543Z,67.74
2023-05-07T11:55:19.581Z,67.56
2023-05-07T11:58:26.719Z,67.96
2023-05-07T12:01:28.297Z,67.40
2023-05-07T12:04:31.454Z,67.34
2023-05-07T12:07:35.244Z,68.06
2023-05-07T12:10:41.475Z,69.08
2023-05-07T12:13:43.006Z,69.35
2023-05-07T12:16:46.002Z,69.83
2023-05-07T12:19:48.038Z,70.44
2023-05-07T12:22:51.180Z,71.10
2023-05-07T12:25:52.804Z,70.06
2023-05-07T12:28:54.401Z,69.39
2023-05-07T12:31:55.970Z,69.46
2023-05-07T12:34:57.500Z,69.54
2023-05-07T12:38:05.060Z,71.43
2023-05-07T12:41:08.412Z,71.65
2023-05-07T12:44:09.902Z,71.86
2023-05-07T12:47:11.580Z,71.68
2023-05-07T12:50:15.075Z,70.36
2023-05-07T12:53:16.806Z,70.39
2023-05-07T12:56:18.338Z,69.77
2023-05-07T12:59:19.861Z,70.69
2023-05-07T13:02:21.453Z,72.89
2023-05-07T13:05:22.931Z,73.21
2023-05-07T13:08:45.460Z,73.13
2023-05-07T13:11:46.928Z,74.12
2023-05-07T13:14:48.391Z,75.80
2023-05-07T13:17:50.037Z,76.81
2023-05-07T13:20:52.155Z,78.23
2023-05-07T13:23:53.830Z,79.89
2023-05-07T13:26:55.738Z,81.08
2023-05-07T13:29:57.629Z,81.22
2023-05-07T13:32:59.210Z,81.33
2023-05-07T13:36:01.707Z,81.46
2023-05-07T13:39:04.524Z,81.97
2023-05-07T13:42:06.181Z,82.57
2023-05-07T13:45:08.480Z,81.94
2023-05-07T13:48:09.996Z,82.33
2023-05-07T13:51:11.737Z,80.75
2023-05-07T13:54:13.234Z,77.45
2023-05-07T13:57:14.790Z,72.62
2023-05-07T14:00:17.284Z,68.87
2023-05-07T14:03:20.631Z,65.86
2023-05-07T14:06:22.856Z,65.03
2023-05-07T14:09:24.780Z,65.62
2023-05-07T14:12:26.496Z,65.47
2023-05-07T14:15:28.034Z,65.68
2023-05-07T14:18:29.995Z,67.25
2023-05-07T14:21:31.895Z,68.62
2023-05-07T14:24:38.604Z,68.42
2023-05-07T14:27:40.609Z,67.45
2023-05-07T14:30:42.158Z,67.13
2023-05-07T14:33:43.686Z,67.21
2023-05-07T14:36:45.242Z,68.64
2023-05-07T14:39:49.948Z,70.17
2023-05-07T14:42:52.020Z,70.75
2023-05-07T14:45:53.619Z,71.12
2023-05-07T14:48:55.469Z,71.33
2023-05-07T14:52:00.297Z,72.64
2023-05-07T14:55:01.737Z,73.75
2023-05-07T14:58:03.266Z,74.36
2023-05-07T15:01:04.936Z,74.42
2023-05-07T15:04:06.977Z,73.94
2023-05-07T15:07:08.478Z,73.42
2023-05-07T15:10:10.269Z,73.47
2023-05-07T15:13:15.555Z,74.39
2023-05-07T15:16:17.784Z,74.51
2023-05-07T15:19:19.363Z,74.64
2023-05-07T15:22:22.441Z,74.69
2023-05-07T15:25:24.225Z,74.75
2023-05-07T15:28:26.058Z,74.58
2023-05-07T15:31:31.149Z,71.15
2023-05-07T15:34:32.693Z,66.41
2023-05-07T15:37:34.748Z,64.72
2023-05-07T15:40:38.650Z,63.20
2023-05-07T15:43:46.808Z,62.43
2023-05-07T15:46:48.362Z,63.34
2023-05-07T15:49:49.854Z,64.29
2023-05-07T15:52:51.415Z,64.00
2023-05-07T15:55:52.943Z,63.61
2023-05-07T15:58:54.481Z,63.53
2023-05-07T16:01:56.028Z,63.20
2023-05-07T16:04:57.539Z,60.65
2023-05-07T16:08:00.134Z,58.74
2023-05-07T16:11:01.651Z,59.00
2023-05-07T16:14:03.181Z,59.78
2023-05-07T16:17:04.764Z,60.98
2023-05-07T16:20:08.676Z,61.25
2023-05-07T16:23:10.570Z,61.52
2023-05-07T16:26:14.137Z,61.29
2023-05-07T16:29:23.170Z,61.64
2023-05-07T16:32:24.919Z,62.66
2023-05-07T16:35:26.775Z,63.73
2023-05-07T16:38:31.211Z,64.84
2023-05-07T16:41:32.999Z,65.86
2023-05-07T16:44:34.456Z,65.81
2023-05-07T16:47:36.285Z,66.79
2023-05-07T16:50:38.212Z,68.01
2023-05-07T16:53:39.748Z,69.98
2023-05-07T16:56:42.414Z,70.25
2023-05-07T16:59:43.947Z,71.07
2023-05-07T17:02:46.815Z,70.93
2023-05-07T17:05:48.509Z,71.52
2023-05-07T17:08:51.468Z,72.97
2023-05-07T17:11:53.030Z,75.74
2023-05-07T17:14:54.492Z,78.68
2023-05-07T17:17:56.219Z,80.50
2023-05-07T17:20:57.829Z,82.95
2023-05-07T17:23:59.370Z,84.81
2023-05-07T17:27:00.927Z,85.92
2023-05-07T17:30:02.979Z,87.98
2023-05-07T17:33:19.315Z,89.44
2023-05-07T17:36:22.213Z,91.16
2023-05-07T17:39:24.496Z,94.60
2023-05-07T17:42:26.151Z,94.84
2023-05-07T17:45:27.622Z,96.65
2023-05-07T17:48:29.335Z,97.99
2023-05-07T17:51:36.263Z,98.46
2023-05-07T17:54:43.887Z,98.57
2023-05-07T17:57:45.431Z,98.33
2023-05-07T18:00:49.373Z,97.61
2023-05-07T18:03:51.381Z,97.25
2023-05-07T18:06:53.363Z,97.45
2023-05-07T18:09:54.979Z,97.84
2023-05-07T18:12:56.639Z,97.76
2023-05-07T18:15:58.128Z,97.94
2023-05-07T18:19:00.720Z,98.39
2023-05-07T18:22:03.059Z,98.50
2023-05-07T18:25:05.002Z,98.90
2023-05-07T18:28:06.506Z,99.60
2023-05-07T18:31:08.098Z,100.00
2023-05-07T18:34:10.430Z,100.00
2023-05-07T18:37:11.925Z,100.00
2023-05-07T18:40:13.811Z,100.00
2023-05-07T18:43:15.602Z,100.00
2023-05-07T18:46:17.053Z,100.00
2023-05-07T18:49:18.795Z,100.00
2023-05-07T18:52:21.975Z,100.00
2023-05-07T18:55:23.547Z,100.00
2023-05-07T18:58:25.102Z,100.00
2023-05-07T19:01:26.744Z,100.00
2023-05-07T19:04:29.951Z,100.00
2023-05-07T19:07:31.757Z,100.00
2023-05-07T19:10:33.278Z,100.00
2023-05-07T19:13:34.817Z,100.00
2023-05-07T19:16:36.976Z,100.00
2023-05-07T19:19:38.634Z,100.00
2023-05-07T19:22:42.740Z,100.00
2023-05-07T19:25:44.249Z,100.00
2023-05-07T19:28:48.462Z,100.00
2023-05-07T19:31:58.057Z,100.00
2023-05-07T19:34:59.678Z,100.00
2023-05-07T19:38:02.021Z,100.00
2023-05-07T19:41:03.560Z,100.00
2023-05-07T19:44:05.066Z,100.00
2023-05-07T19:47:06.826Z,100.00
2023-05-07T19:50:08.770Z,100.00
2023-05-07T19:53:10.835Z,100.00
2023-05-07T19:56:12.691Z,100.00
2023-05-07T19:59:14.345Z,100.00
2023-05-07T20:02:16.547Z,100.00
2023-05-07T20:05:18.158Z,100.00
2023-05-07T20:08:19.737Z,100.00
2023-05-07T20:11:21.731Z,100.00
2023-05-07T20:14:23.314Z,100.00
2023-05-07T20:17:24.879Z,100.00
2023-05-07T20:20:26.326Z,100.00
2023-05-07T20:23:27.876Z,100.00
2023-05-07T20:26:29.379Z,100.00
2023-05-07T20:29:31.145Z,100.00
2023-05-07T20:32:32.898Z,100.00
2023-05-07T20:35:34.446Z,100.00
2023-05-07T20:38:36.023Z,100.00
2023-05-07T20:41:37.697Z,100.00
2023-05-07T20:44:39.156Z,100.00
2023-05-07T20:47:41.184Z,100.00
2023-05-07T20:50:42.695Z,100.00
2023-05-07T20:53:46.138Z,100.00
2023-05-07T20:56:49.156Z,100.00
2023-05-07T20:59:50.788Z,100.00
2023-05-07T21:02:53.273Z,100.00
2023-05-07T21:05:56.566Z,100.00
2023-05-07T21:08:58.042Z,100.00
2023-05-07T21:11:59.601Z,100.00
2023-05-07T21:15:01.112Z,100.00
2023-05-07T21:18:02.846Z,100.00
2023-05-07T21:21:09.158Z,100.00
2023-05-07T21:24:11.416Z,100.00
2023-05-07T21:27:12.972Z,100.00
2023-05-07T21:30:15.256Z,100.00
2023-05-07T21:33:16.948Z,100.00
2023-05-07T21:36:18.877Z,100.00
2023-05-07T21:39:22.440Z,100.00
2023-05-07T21:42:25.226Z,100.00
2023-05-07T21:45:29.830Z,100.00
2023-05-07T21:48:31.337Z,100.00
2023-05-07T21:51:34.462Z,100.00
2023-05-07T21:54:35.934Z,100.00
2023-05-07T21:57:37.749Z,100.00
2023-05-07T22:00:39.315Z,100.00
2023-05-07T22:03:41.052Z,100.00
2023-05-07T22:06:42.605Z,100.00
2023-05-07T22:09:44.100Z,100.00
2023-05-07T22:12:45.642Z,100.00
2023-05-07T22:15:56.775Z,100.00
2023-05-07T22:18:59.324Z,100.00
2023-05-07T22:22:00.775Z,100.00
2023-05-07T22:25:02.327Z,100.00
2023-05-07T22:28:04.004Z,100.00
2023-05-07T22:31:05.592Z,100.00
2023-05-07T22:34:07.013Z,100.00
2023-05-07T22:37:08.632Z,100.00
2023-05-07T22:40:10.767Z,100.00
2023-05-07T22:43:12.462Z,100.00
2023-05-07T22:46:14.004Z,100.00
2023-05-07T22:49:15.535Z,100.00
2023-05-07T22:52:17.304Z,100.00
2023-05-07T22:55:18.867Z,100.00
2023-05-07T22:58:20.450Z,100.00
2023-05-07T23:01:22.026Z,100.00
2023-05-07T23:04:23.556Z,100.00
2023-05-07T23:07:25.043Z,100.00
2023-05-07T23:10:26.567Z,100.00
2023-05-07T23:13:28.246Z,100.00
2023-05-07T23:16:30.217Z,100.00
2023-05-07T23:19:31.785Z,100.00
2023-05-07T23:22:33.267Z,100.00
2023-05-07T23:25:34.742Z,100.00
2023-05-07T23:28:36.192Z,100.00
2023-05-07T23:31:37.795Z,100.00
2023-05-07T23:34:39.279Z,100.00
2023-05-07T23:37:41.247Z,100.00
2023-05-07T23:40:42.821Z,100.00
2023-05-07T23:43:44.287Z,100.00
2023-05-07T23:46:46.161Z,100.00
2023-05-07T23:49:48.050Z,100.00
2023-05-07T23:52:49.562Z,100.00
2023-05-07T23:55:51.104Z,100.00
2023-05-07T23:58:52.611Z,100.00
